createdAt,value
2023-02-07T03:43:39.081Z,102418.25
2023-02-07T03:46:41.870Z,102407.03
2023-02-07T03:49:44.211Z,102404.72
2023-02-07T03:52:46.973Z,102402.78
2023-02-07T03:55:49.169Z,102396.16
2023-02-07T03:58:51.628Z,102396.63
2023-02-07T04:01:53.831Z,102406.59
2023-02-07T04:04:56.278Z,102397.84
2023-02-07T04:07:58.433Z,102397.41
2023-02-07T04:11:03.370Z,102389.09
2023-02-07T04:14:05.537Z,102393.63
2023-02-07T04:17:07.981Z,102392.59
2023-02-07T04:20:10.741Z,102404.91
2023-02-07T04:23:13.788Z,102403.03
2023-02-07T04:26:15.957Z,102402.41
2023-02-07T04:29:18.381Z,102399.63
2023-02-07T04:32:20.569Z,102386.28
2023-02-07T04:35:23.042Z,102386.94
2023-02-07T04:38:25.794Z,102378.94
2023-02-07T04:41:28.355Z,102374.28
2023-02-07T04:44:31.077Z,102372.22
2023-02-07T04:47:33.502Z,102393.16
2023-02-07T04:50:35.676Z,102394.34
2023-02-07T04:53:38.075Z,102410.78
2023-02-07T04:56:40.205Z,102411.78
2023-02-07T04:59:42.703Z,102413.56
2023-02-07T05:02:44.930Z,102414.81
2023-02-07T05:05:47.430Z,102419.06
2023-02-07T05:08:49.529Z,102420.44
2023-02-07T05:11:51.953Z,102428.78
2023-02-07T05:14:54.079Z,102432.03
2023-02-07T05:17:57.108Z,102441.25
2023-02-07T05:20:59.504Z,102442.66
2023-02-07T05:24:01.986Z,102446.81
2023-02-07T05:27:04.509Z,102448.88
2023-02-07T05:30:07.681Z,102451.66
2023-02-07T05:33:11.013Z,102452.34
2023-02-07T05:36:13.409Z,102468.13
2023-02-07T05:39:15.841Z,102465.00
2023-02-07T05:42:18.380Z,102464.22
2023-02-07T05:45:21.512Z,102454.06
2023-02-07T05:48:23.882Z,102460.09
2023-02-07T05:51:26.099Z,102464.22
2023-02-07T05:54:29.903Z,102478.03
2023-02-07T05:57:32.311Z,102469.25
2023-02-07T06:00:34.774Z,102461.41
2023-02-07T06:03:37.260Z,102463.78
2023-02-07T06:06:39.484Z,102458.31
2023-02-07T06:09:41.945Z,102457.16
2023-02-07T06:12:44.261Z,102459.72
2023-02-07T06:15:47.868Z,102464.47
2023-02-07T06:18:50.955Z,102469.12
2023-02-07T06:21:53.444Z,102475.56
2023-02-07T06:24:55.563Z,102470.66
2023-02-07T06:27:58.035Z,102458.31
2023-02-07T06:31:00.342Z,102476.34
2023-02-07T06:34:02.889Z,102474.75
2023-02-07T06:37:05.286Z,102465.66
2023-02-07T06:40:08.304Z,102453.72
2023-02-07T06:43:11.646Z,102459.31
2023-02-07T06:46:14.665Z,102449.66
2023-02-07T06:49:16.861Z,102442.00
2023-02-07T06:52:19.741Z,102439.47
2023-02-07T06:55:21.935Z,102437.38
2023-02-07T06:58:24.557Z,102445.91
2023-02-07T07:01:26.738Z,102441.84
2023-02-07T07:04:29.715Z,102441.34
2023-02-07T07:07:31.883Z,102443.22
2023-02-07T07:10:34.867Z,102437.19
2023-02-07T07:13:37.335Z,102438.56
2023-02-07T07:16:43.169Z,102434.59
2023-02-07T07:19:45.279Z,102432.50
2023-02-07T07:22:48.520Z,102428.81
2023-02-07T07:25:50.820Z,102434.06
2023-02-07T07:28:58.131Z,102434.00
2023-02-07T07:32:00.599Z,102427.31
2023-02-07T07:35:05.051Z,102423.37
2023-02-07T07:38:07.230Z,102431.38
2023-02-07T07:41:09.715Z,102434.88
2023-02-07T07:44:11.913Z,102438.75
2023-02-07T07:47:14.584Z,102434.53
2023-02-07T07:50:17.065Z,102427.16
2023-02-07T07:53:20.220Z,102434.22
2023-02-07T07:56:22.412Z,102434.22
2023-02-07T07:59:25.226Z,102429.78
2023-02-07T08:02:28.109Z,102435.22
2023-02-07T08:05:30.562Z,102421.72
2023-02-07T08:08:33.472Z,102423.72
2023-02-07T08:11:36.000Z,102417.97
2023-02-07T08:14:38.700Z,102417.59
2023-02-07T08:17:41.227Z,102417.81
2023-02-07T08:20:43.495Z,102408.28
2023-02-07T08:23:45.934Z,102407.38
2023-02-07T08:26:48.119Z,102407.75
2023-02-07T08:29:54.415Z,102411.34
2023-02-07T08:32:56.625Z,102416.25
2023-02-07T08:36:00.641Z,102412.84
2023-02-07T08:39:05.190Z,102412.22
2023-02-07T08:42:09.524Z,102424.28
2023-02-07T08:45:14.166Z,102412.72
2023-02-07T08:48:16.867Z,102425.19
2023-02-07T08:51:19.335Z,102422.63
2023-02-07T08:54:22.185Z,102428.50
2023-02-07T08:57:25.780Z,102429.19
2023-02-07T09:00:28.513Z,102425.00
2023-02-07T09:03:30.707Z,102418.31
2023-02-07T09:06:33.265Z,102421.09
2023-02-07T09:09:35.728Z,102422.22
2023-02-07T09:12:38.288Z,102421.34
2023-02-07T09:15:40.448Z,102417.78
2023-02-07T09:18:42.973Z,102418.06
2023-02-07T09:21:45.245Z,102417.91
2023-02-07T09:24:47.751Z,102420.47
2023-02-07T09:27:50.596Z,102412.50
2023-02-07T09:30:53.582Z,102419.09
2023-02-07T09:33:56.184Z,102418.47
2023-02-07T09:36:59.007Z,102405.78
2023-02-07T09:40:01.261Z,102405.47
2023-02-07T09:43:09.019Z,102406.09
2023-02-07T09:46:22.697Z,102405.63
2023-02-07T09:49:38.528Z,102395.69
2023-02-07T09:52:47.444Z,102390.56
2023-02-07T09:55:57.840Z,102392.75
2023-02-07T09:59:18.555Z,102397.81
2023-02-07T10:02:26.259Z,102391.25
2023-02-07T10:05:53.845Z,102400.28
2023-02-07T10:09:00.093Z,102395.44
2023-02-07T10:12:34.628Z,102391.88
2023-02-07T10:15:50.403Z,102398.75
2023-02-07T10:19:01.111Z,102401.31
2023-02-07T10:22:15.838Z,102385.31
2023-02-07T10:25:36.512Z,102375.41
2023-02-07T10:28:59.441Z,102370.19
2023-02-07T10:32:12.587Z,102361.91
2023-02-07T10:35:19.696Z,102361.59
2023-02-07T10:38:38.205Z,102360.34
2023-02-07T10:41:45.049Z,102360.22
2023-02-07T10:44:48.037Z,102350.62
2023-02-07T10:47:50.214Z,102362.44
2023-02-07T10:50:52.718Z,102350.22
2023-02-07T10:54:07.740Z,102345.31
2023-02-07T10:57:18.062Z,102353.41
2023-02-07T11:00:28.792Z,102342.16
2023-02-07T11:03:31.449Z,102344.66
2023-02-07T11:06:34.471Z,102327.78
2023-02-07T11:09:39.529Z,102330.19
2023-02-07T11:12:58.965Z,102324.19
2023-02-07T11:16:10.606Z,102318.88
2023-02-07T11:19:22.838Z,102315.47
2023-02-07T11:22:28.538Z,102311.91
2023-02-07T11:25:35.841Z,102310.22
2023-02-07T11:28:38.478Z,102308.37
2023-02-07T11:31:42.750Z,102309.00
2023-02-07T11:34:51.397Z,102316.00
2023-02-07T11:38:22.927Z,102296.44
2023-02-07T11:41:27.547Z,102289.69
2023-02-07T11:44:30.997Z,102294.09
2023-02-07T11:47:35.420Z,102300.00
2023-02-07T11:50:40.988Z,102295.06
2023-02-07T11:53:47.206Z,102284.53
2023-02-07T11:56:53.636Z,102290.16
2023-02-07T12:00:06.893Z,102284.31
2023-02-07T12:03:27.569Z,102278.56
2023-02-07T12:06:42.201Z,102273.69
2023-02-07T12:09:59.314Z,102273.56
2023-02-07T12:13:15.253Z,102273.87
2023-02-07T12:16:26.457Z,102270.94
2023-02-07T12:19:33.760Z,102266.44
2023-02-07T12:22:59.284Z,102284.22
2023-02-07T12:26:13.094Z,102286.34
2023-02-07T12:29:37.349Z,102298.13
2023-02-07T12:33:03.812Z,102303.69
2023-02-07T12:36:20.348Z,102305.06
2023-02-07T12:39:42.125Z,102305.06
2023-02-07T12:42:57.358Z,102299.31
2023-02-07T12:46:02.516Z,102301.09
2023-02-07T12:49:33.715Z,102297.41
2023-02-07T12:52:57.285Z,102298.16
2023-02-07T12:56:23.355Z,102285.72
2023-02-07T12:59:55.116Z,102291.25
2023-02-07T13:03:34.442Z,102295.69
2023-02-07T13:07:14.271Z,102287.75
2023-02-07T13:10:52.003Z,102292.59
2023-02-07T13:14:35.947Z,102296.88
2023-02-07T13:17:40.924Z,102293.16
2023-02-07T13:21:11.488Z,102288.44
2023-02-07T13:24:17.079Z,102288.34
2023-02-07T13:27:22.425Z,102288.16
2023-02-07T13:30:28.026Z,102285.66
2023-02-07T13:33:42.014Z,102294.13
2023-02-07T13:36:49.219Z,102281.63
2023-02-07T13:40:16.476Z,102290.66
2023-02-07T13:43:25.228Z,102291.22
2023-02-07T13:46:58.297Z,102282.03
2023-02-07T13:50:21.699Z,102279.66
2023-02-07T13:53:36.122Z,102282.59
2023-02-07T13:56:57.340Z,102282.19
2023-02-07T14:00:07.325Z,102276.69
2023-02-07T14:03:35.313Z,102283.69
2023-02-07T14:06:40.399Z,102280.00
2023-02-07T14:09:48.897Z,102279.81
2023-02-07T14:12:53.755Z,102284.78
2023-02-07T14:16:09.972Z,102276.91
2023-02-07T14:19:13.620Z,102274.13
2023-02-07T14:22:15.860Z,102274.63
2023-02-07T14:25:18.325Z,102275.13
2023-02-07T14:28:31.753Z,102288.34
2023-02-07T14:31:34.200Z,102296.81
2023-02-07T14:35:25.671Z,102295.66
2023-02-07T14:38:42.304Z,102292.75
2023-02-07T14:41:46.505Z,102301.97
2023-02-07T14:44:50.957Z,102300.22
2023-02-07T14:47:53.340Z,102301.84
2023-02-07T14:50:55.948Z,102301.47
2023-02-07T14:54:06.415Z,102303.31
2023-02-07T14:57:36.694Z,102308.06
2023-02-07T15:00:50.218Z,102305.94
2023-02-07T15:04:07.186Z,102311.94
2023-02-07T15:07:17.002Z,102307.59
2023-02-07T15:10:24.243Z,102307.28
2023-02-07T15:13:43.336Z,102315.09
2023-02-07T15:16:45.902Z,102311.34
2023-02-07T15:19:48.296Z,102318.28
2023-02-07T15:22:54.353Z,102321.03
2023-02-07T15:25:58.246Z,102327.06
2023-02-07T15:29:05.362Z,102322.28
2023-02-07T15:32:30.727Z,102327.63
2023-02-07T15:35:39.397Z,102328.03
2023-02-07T15:38:41.827Z,102334.66
2023-02-07T15:41:46.181Z,102332.28
2023-02-07T15:44:54.086Z,102334.44
2023-02-07T15:47:58.804Z,102334.16
2023-02-07T15:51:04.529Z,102336.28
2023-02-07T15:54:07.494Z,102339.69
2023-02-07T15:57:22.108Z,102339.03
2023-02-07T16:00:29.156Z,102337.25
2023-02-07T16:03:36.578Z,102350.50
2023-02-07T16:06:54.982Z,102350.56
2023-02-07T16:10:15.545Z,102347.50
2023-02-07T16:13:22.919Z,102348.81
2023-02-07T16:16:28.489Z,102352.72
2023-02-07T16:19:32.899Z,102352.37
2023-02-07T16:22:36.256Z,102346.88
2023-02-07T16:25:38.520Z,102352.28
2023-02-07T16:28:41.004Z,102354.12
2023-02-07T16:31:44.177Z,102354.25
2023-02-07T16:34:58.970Z,102355.34
2023-02-07T16:38:02.433Z,102354.19
2023-02-07T16:41:04.995Z,102361.97
2023-02-07T16:44:12.424Z,102368.50
